Time;durP1;ratioP1;P1;durP2;ratioP2;P2;SDS_P1;SDS_P2;PMS_P1;PMS_P2;Temp;Humidity;BMP_temperature;BMP_pressure;BME280_temperature;BME280_humidity;BME280_pressure;Samples;Min_cycle;Max_cycle;Signal;HPM_P1;HPM_P2
2024/02/01 00:00:04;;;;;;;;;;;;;;;;;;5077843;28;19974;-77
2024/02/01 00:02:30;;;;;;;;;;;;;;;;;;5084688;28;19939;-77
2024/02/01 00:04:57;;;;;;;;;;;;;;;;;;5088304;28;20391;-77
2024/02/01 00:07:23;;;;;;;;;;;;;;;;;;5078060;28;19931;-76
2024/02/01 00:09:50;;;;;;;;;;;;;;;;;;5074124;28;19924;-76
2024/02/01 00:12:16;;;;;;;;;;;;;;;;;;5085784;28;19957;-78
2024/02/01 00:14:43;;;;;;;;;;;;;;;;;;5080537;28;20382;-75
2024/02/01 00:17:09;;;;;;;;;;;;;;;;;;5081739;28;19924;-76
2024/02/01 00:19:36;;;;;;;;;;;;;;;;;;5077682;28;19925;-76
2024/02/01 00:22:02;;;;;;;;;;;;;;;;;;5075151;28;20367;-77
2024/02/01 00:24:28;;;;;;;;;;;;;;;;;;5080769;28;19932;-76
2024/02/01 00:26:55;;;;;;;;;;;;;;;;;;5076190;28;19931;-77
2024/02/01 00:29:21;;;;;;;;;;;;;;;;;;5080905;28;19928;-76
2024/02/01 00:31:48;;;;;;;;;;;;;;;;;;5076633;28;19967;-75
2024/02/01 00:34:14;;;;;;;;;;;;;;;;;;5079575;28;19931;-77
2024/02/01 00:36:41;;;;;;;;;;;;;;;;;;5087752;28;20289;-79
2024/02/01 00:39:07;;;;;;;;;;;;;;;;;;5086020;28;19932;-77
2024/02/01 00:41:34;;;;;;;;;;;;;;;;;;5082764;28;19924;-76
2024/02/01 00:44:00;;;;;;;;;;;;;;;;;;5088353;28;19931;-76
2024/02/01 00:46:27;;;;;;;;;;;;;;;;;;5064058;28;20015;-77
2024/02/01 00:48:53;;;;;;;;;;;;;;;;;;5065522;28;19931;-77
2024/02/01 00:51:20;;;;;;;;;;;;;;;;;;5083511;28;19924;-76
2024/02/01 00:53:46;;;;;;;;;;;;;;;;;;5087835;28;19935;-80
2024/02/01 00:56:13;;;;;;;;;;;;;;;;;;5084695;28;19924;-79
2024/02/01 00:58:40;;;;;;;;;;;;;;;;;;5077594;28;20247;-77
2024/02/01 01:01:06;;;;;;;;;;;;;;;;;;5080594;28;20242;-78
2024/02/01 01:03:32;;;;;;;;;;;;;;;;;;5085235;28;19931;-78
2024/02/01 01:05:59;;;;;;;;;;;;;;;;;;5085813;28;20352;-77
2024/02/01 01:08:25;;;;;;;;;;;;;;;;;;5086341;28;19931;-78
2024/02/01 01:10:52;;;;;;;;;;;;;;;;;;5087562;28;19924;-79
2024/02/01 01:13:18;;;;;;;;;;;;;;;;;;5062884;28;20384;-77
2024/02/01 01:15:44;;;;;;;;;;;;;;;;;;5064994;28;19924;-79
2024/02/01 01:18:11;;;;;;;;;;;;;;;;;;5083304;28;20030;-78
2024/02/01 01:20:38;;;;;;;;;;;;;;;;;;5071734;28;19924;-78
2024/02/01 01:23:04;;;;;;;;;;;;;;;;;;5082137;28;20082;-76
2024/02/01 01:25:30;;;;;;;;;;;;;;;;;;5079315;28;20299;-76
2024/02/01 01:27:57;;;;;;;;;;;;;;;;;;5061942;28;19924;-78
2024/02/01 01:30:23;;;;;;;;;;;;;;;;;;5081169;28;20022;-77
2024/02/01 01:32:50;;;;;;;;;;;;;;;;;;5089066;28;19924;-79
2024/02/01 01:35:19;;;;;;;;;;;;;;;;;;5086187;28;19924;-78
2024/02/01 01:37:45;;;;;;;;;;;;;;;;;;5089037;28;19939;-79
2024/02/01 01:40:12;;;;;;;;;;;;;;;;;;5064134;28;20014;-78
2024/02/01 01:42:38;;;;;;;;;;;;;;;;;;5074087;28;19925;-79
2024/02/01 01:45:04;;;;;;;;;;;;;;;;;;5077737;28;19932;-82
2024/02/01 01:47:31;;;;;;;;;;;;;;;;;;5075462;28;19932;-81
2024/02/01 01:49:57;;;;;;;;;;;;;;;;;;5083173;28;19993;-80
2024/02/01 01:52:24;;;;;;;;;;;;;;;;;;5086778;28;19932;-79
2024/02/01 01:54:51;;;;;;;;;;;;;;;;;;5060848;28;19939;-79
2024/02/01 01:57:17;;;;;;;;;;;;;;;;;;5079545;28;20184;-80
2024/02/01 01:59:44;;;;;;;;;;;;;;;;;;5077560;28;20384;-77
2024/02/01 02:02:10;;;;;;;;;;;;;;;;;;5082972;28;20019;-78
2024/02/01 02:04:37;;;;;;;;;;;;;;;;;;5077111;28;19924;-75
2024/02/01 02:07:03;;;;;;;;;;;;;;;;;;5067924;28;19931;-78
2024/02/01 02:09:29;;;;;;;;;;;;;;;;;;5086192;28;19924;-79
2024/02/01 02:11:56;;;;;;;;;;;;;;;;;;5080075;28;19974;-80
2024/02/01 02:14:22;;;;;;;;;;;;;;;;;;5080840;28;19967;-78
2024/02/01 02:16:49;;;;;;;;;;;;;;;;;;5084153;28;19986;-78
2024/02/01 02:19:16;;;;;;;;;;;;;;;;;;5061608;28;19925;-81
2024/02/01 02:21:42;;;;;;;;;;;;;;;;;;5051218;28;20561;-78
2024/02/01 02:24:09;;;;;;;;;;;;;;;;;;5078859;28;19935;-81
2024/02/01 02:26:36;;;;;;;;;;;;;;;;;;5075968;28;20415;-80
2024/02/01 02:29:03;;;;;;;;;;;;;;;;;;5083041;28;19932;-78
2024/02/01 02:31:29;;;;;;;;;;;;;;;;;;5082808;28;19924;-81
2024/02/01 02:33:56;;;;;;;;;;;;;;;;;;5080252;28;19955;-79
2024/02/01 02:36:22;;;;;;;;;;;;;;;;;;5077003;28;19928;-80
2024/02/01 02:38:48;;;;;;;;;;;;;;;;;;5082976;28;19924;-78
2024/02/01 02:41:16;;;;;;;;;;;;;;;;;;5066065;28;20297;-81
2024/02/01 02:43:42;;;;;;;;;;;;;;;;;;5076177;28;19928;-80
2024/02/01 02:46:09;;;;;;;;;;;;;;;;;;5084177;28;19924;-81
2024/02/01 02:48:37;;;;;;;;;;;;;;;;;;5088035;28;20011;-82
2024/02/01 02:51:04;;;;;;;;;;;;;;;;;;5096204;28;19950;-81
2024/02/01 02:53:30;;;;;;;;;;;;;;;;;;5074625;28;20399;-81
2024/02/01 02:55:58;;;;;;;;;;;;;;;;;;5081341;28;19932;-81
2024/02/01 02:58:24;;;;;;;;;;;;;;;;;;5071349;28;19946;-80
2024/02/01 03:00:51;;;;;;;;;;;;;;;;;;5083335;28;19935;-81
2024/02/01 03:03:18;;;;;;;;;;;;;;;;;;5078033;28;19982;-80
2024/02/01 03:05:44;;;;;;;;;;;;;;;;;;5079608;28;19931;-80
2024/02/01 03:08:11;;;;;;;;;;;;;;;;;;5086558;28;19924;-81
2024/02/01 03:10:38;;;;;;;;;;;;;;;;;;5087884;28;20372;-80
2024/02/01 03:13:10;;;;;;;;;;;;;;;;;;5084224;28;19929;-81
2024/02/01 03:15:37;;;;;;;;;;;;;;;;;;5084376;28;20015;-81
2024/02/01 03:18:05;;;;;;;;;;;;;;;;;;5084347;28;20331;-81
2024/02/01 03:20:32;;;;;;;;;;;;;;;;;;5087030;28;19927;-81
2024/02/01 03:22:58;;;;;;;;;;;;;;;;;;5081336;28;19971;-81
2024/02/01 03:25:28;;;;;;;;;;;;;;;;;;5076796;28;19935;-79
2024/02/01 03:27:54;;;;;;;;;;;;;;;;;;5089641;28;19955;-81
2024/02/01 03:30:21;;;;;;;;;;;;;;;;;;5062406;28;19931;-81
2024/02/01 03:32:48;;;;;;;;;;;;;;;;;;5084621;28;20381;-81
2024/02/01 03:35:16;;;;;;;;;;;;;;;;;;5084904;28;19931;-81
2024/02/01 03:37:42;;;;;;;;;;;;;;;;;;5077813;28;19928;-80
2024/02/01 03:40:09;;;;;;;;;;;;;;;;;;5083377;28;19931;-81
2024/02/01 03:42:35;;;;;;;;;;;;;;;;;;5088614;28;19928;-81
2024/02/01 03:45:05;;;;;;;;;;;;;;;;;;5067719;28;19928;-81
2024/02/01 03:47:31;;;;;;;;;;;;;;;;;;5087938;28;19928;-80
2024/02/01 03:49:57;;;;;;;;;;;;;;;;;;5086458;28;20395;-82
2024/02/01 03:52:24;;;;;;;;;;;;;;;;;;5088258;28;19959;-81
2024/02/01 03:54:54;;;;;;;;;;;;;;;;;;5079895;28;20019;-82
2024/02/01 03:57:20;;;;;;;;;;;;;;;;;;5084148;28;19925;-81
2024/02/01 03:59:47;;;;;;;;;;;;;;;;;;5083703;28;20322;-81
2024/02/01 04:02:16;;;;;;;;;;;;;;;;;;5082680;28;19931;-80
2024/02/01 04:04:47;;;;;;;;;;;;;;;;;;5077026;28;19964;-79
2024/02/01 04:07:16;;;;;;;;;;;;;;;;;;5065559;28;19924;-82
2024/02/01 04:09:42;;;;;;;;;;;;;;;;;;5078020;28;20360;-81
2024/02/01 04:12:10;;;;;;;;;;;;;;;;;;5083741;28;19925;-81
2024/02/01 04:14:38;;;;;;;;;;;;;;;;;;5079702;28;19925;-80
2024/02/01 04:17:05;;;;;;;;;;;;;;;;;;5078702;28;20326;-80
2024/02/01 04:19:31;;;;;;;;;;;;;;;;;;5087678;28;20065;-81
2024/02/01 04:21:58;;;;;;;;;;;;;;;;;;5087624;28;19924;-81
2024/02/01 04:24:24;;;;;;;;;;;;;;;;;;5085498;28;19927;-82
2024/02/01 04:26:51;;;;;;;;;;;;;;;;;;5074613;28;20272;-82
2024/02/01 04:29:19;;;;;;;;;;;;;;;;;;5067688;28;20399;-80
2024/02/01 04:31:45;;;;;;;;;;;;;;;;;;5079348;28;20018;-83
2024/02/01 04:34:11;;;;;;;;;;;;;;;;;;5066277;28;20019;-81
2024/02/01 04:36:40;;;;;;;;;;;;;;;;;;5079544;28;20406;-79
2024/02/01 04:39:08;;;;;;;;;;;;;;;;;;5082770;28;19930;-80
2024/02/01 04:41:34;;;;;;;;;;;;;;;;;;5076442;28;19935;-82
2024/02/01 04:44:01;;;;;;;;;;;;;;;;;;5077186;28;19963;-79
2024/02/01 04:46:29;;;;;;;;;;;;;;;;;;5079045;28;19931;-80
2024/02/01 04:48:56;;;;;;;;;;;;;;;;;;5085548;28;20024;-82
2024/02/01 04:51:22;;;;;;;;;;;;;;;;;;5077751;28;20031;-81
2024/02/01 04:53:49;;;;;;;;;;;;;;;;;;5082541;28;19935;-81
2024/02/01 04:56:15;;;;;;;;;;;;;;;;;;5082297;28;20024;-82
2024/02/01 04:58:42;;;;;;;;;;;;;;;;;;5069896;28;20014;-81
2024/02/01 05:01:10;;;;;;;;;;;;;;;;;;5084979;28;19924;-80
2024/02/01 05:03:37;;;;;;;;;;;;;;;;;;5079060;28;19925;-81
2024/02/01 05:06:07;;;;;;;;;;;;;;;;;;5077589;28;19970;-81
2024/02/01 05:08:34;;;;;;;;;;;;;;;;;;5079767;28;20039;-82
2024/02/01 05:11:00;;;;;;;;;;;;;;;;;;5075350;28;19974;-79
2024/02/01 05:13:30;;;;;;;;;;;;;;;;;;5086264;28;20386;-80
2024/02/01 05:15:57;;;;;;;;;;;;;;;;;;5077651;28;19953;-81
2024/02/01 05:18:26;;;;;;;;;;;;;;;;;;5077800;28;19996;-82
2024/02/01 05:20:53;;;;;;;;;;;;;;;;;;5079054;28;20494;-81
2024/02/01 05:23:19;;;;;;;;;;;;;;;;;;5083703;28;19928;-82
2024/02/01 05:25:45;;;;;;;;;;;;;;;;;;5082272;28;19924;-81
2024/02/01 05:28:12;;;;;;;;;;;;;;;;;;5087062;28;20319;-81
2024/02/01 05:30:38;;;;;;;;;;;;;;;;;;5088891;28;20027;-79
2024/02/01 05:33:05;;;;;;;;;;;;;;;;;;5068446;28;19924;-79
2024/02/01 05:35:33;;;;;;;;;;;;;;;;;;5082979;28;19930;-79
2024/02/01 05:38:00;;;;;;;;;;;;;;;;;;5081417;28;19931;-79
2024/02/01 05:40:27;;;;;;;;;;;;;;;;;;5080441;28;19931;-81
2024/02/01 05:42:54;;;;;;;;;;;;;;;;;;5091079;28;19928;-82
2024/02/01 05:45:21;;;;;;;;;;;;;;;;;;5084463;28;19970;-80
2024/02/01 05:47:51;;;;;;;;;;;;;;;;;;5077975;28;19931;-80
2024/02/01 05:50:18;;;;;;;;;;;;;;;;;;5079389;28;19966;-79
2024/02/01 05:52:44;;;;;;;;;;;;;;;;;;5066238;28;20019;-80
2024/02/01 05:55:13;;;;;;;;;;;;;;;;;;5082235;28;19924;-79
2024/02/01 05:57:39;;;;;;;;;;;;;;;;;;5080651;28;19924;-81
2024/02/01 06:00:06;;;;;;;;;;;;;;;;;;5079895;28;19930;-79
2024/02/01 06:02:33;;;;;;;;;;;;;;;;;;5083180;28;19928;-81
2024/02/01 06:05:00;;;;;;;;;;;;;;;;;;5088764;28;19978;-82
2024/02/01 06:07:26;;;;;;;;;;;;;;;;;;5080272;28;19942;-81
2024/02/01 06:09:53;;;;;;;;;;;;;;;;;;5078394;28;19981;-80
2024/02/01 06:12:19;;;;;;;;;;;;;;;;;;5077927;28;20019;-79
2024/02/01 06:14:46;;;;;;;;;;;;;;;;;;5082159;28;19970;-80
2024/02/01 06:17:12;;;;;;;;;;;;;;;;;;5083132;28;19924;-80
2024/02/01 06:19:38;;;;;;;;;;;;;;;;;;5083139;28;19931;-81
2024/02/01 06:22:06;;;;;;;;;;;;;;;;;;5074240;28;19932;-81
2024/02/01 06:24:32;;;;;;;;;;;;;;;;;;5082242;28;20022;-82
2024/02/01 06:26:59;;;;;;;;;;;;;;;;;;5075870;28;20301;-79
2024/02/01 06:29:25;;;;;;;;;;;;;;;;;;5067601;28;19924;-79
2024/02/01 06:31:51;;;;;;;;;;;;;;;;;;5086743;28;20385;-80
2024/02/01 06:34:24;;;;;;;;;;;;;;;;;;5081737;28;19931;-80
2024/02/01 06:36:58;;;;;;;;;;;;;;;;;;5083525;28;19929;-79
2024/02/01 06:42:24;;;;;;;;;;;;;;;;;;5081603;28;20016;-81
2024/02/01 06:45:05;;;;;;;;;;;;;;;;;;5068468;28;20414;-79
2024/02/01 06:47:39;;;;;;;;;;;;;;;;;;5079829;28;19947;-80
2024/02/01 06:50:15;;;;;;;;;;;;;;;;;;5091776;28;19924;-81
2024/02/01 06:52:43;;;;;;;;;;;;;;;;;;5080357;28;20035;-79
2024/02/01 06:57:47;;;;;;;;;;;;;;;;;;5082707;28;20023;-79
2024/02/01 07:03:04;;;;;;;;;;;;;;;;;;5084483;28;19924;-80
2024/02/01 07:08:26;;;;;;;;;;;;;;;;;;5080449;28;19931;-81
2024/02/01 07:11:00;;;;;;;;;;;;;;;;;;5077301;28;19971;-80
2024/02/01 07:16:21;;;;;;;;;;;;;;;;;;5085470;28;19924;-79
2024/02/01 07:19:09;;;;;;;;;;;;;;;;;;5067411;28;19932;-79
2024/02/01 07:21:45;;;;;;;;;;;;;;;;;;5085153;28;19978;-78
2024/02/01 07:24:27;;;;;;;;;;;;;;;;;;5085342;28;19924;-80
2024/02/01 08:00:04;;;;;;;;;;;;;;;;;;5072752;28;19963;-81
2024/02/01 08:02:49;;;;;;;;;;;;;;;;;;5086546;28;19986;-81
2024/02/01 08:08:02;;;;;;;;;;;;;;;;;;5084314;28;19932;-79
2024/02/01 08:10:29;;;;;;;;;;;;;;;;;;5086237;28;19924;-78
2024/02/01 08:12:55;;;;;;;;;;;;;;;;;;5085847;28;19929;-79
2024/02/01 08:15:22;;;;;;;;;;;;;;;;;;5086376;28;20564;-77
2024/02/01 08:17:48;;;;;;;;;;;;;;;;;;5080612;28;20014;-80
2024/02/01 08:20:15;;;;;;;;;;;;;;;;;;5078434;28;20380;-79
2024/02/01 08:22:41;;;;;;;;;;;;;;;;;;5091427;28;19928;-79
2024/02/01 08:25:09;;;;;;;;;;;;;;;;;;5081483;28;19925;-78
2024/02/01 08:27:36;;;;;;;;;;;;;;;;;;5074522;28;20495;-80
2024/02/01 08:30:12;;;;;;;;;;;;;;;;;;5079831;28;19924;-77
2024/02/01 08:32:38;;;;;;;;;;;;;;;;;;5075468;28;19928;-77
2024/02/01 08:35:09;;;;;;;;;;;;;;;;;;5081672;28;19981;-78
2024/02/01 08:37:35;;;;;;;;;;;;;;;;;;5073586;28;19929;-79
2024/02/01 08:40:02;;;;;;;;;;;;;;;;;;5083819;28;19936;-77
2024/02/01 08:42:29;;;;;;;;;;;;;;;;;;5070158;28;20368;-78
2024/02/01 08:44:59;;;;;;;;;;;;;;;;;;5080865;28;19931;-78
2024/02/01 08:47:26;;;;;;;;;;;;;;;;;;5083401;28;19924;-80
2024/02/01 08:49:53;;;;;;;;;;;;;;;;;;5080384;28;19959;-76
2024/02/01 08:52:20;;;;;;;;;;;;;;;;;;5081546;28;19932;-81
2024/02/01 08:54:46;;;;;;;;;;;;;;;;;;5079569;28;19930;-77
2024/02/01 08:57:15;;;;;;;;;;;;;;;;;;5086446;28;20019;-78
2024/02/01 08:59:41;;;;;;;;;;;;;;;;;;5072298;28;20343;-78
2024/02/01 09:02:15;;;;;;;;;;;;;;;;;;5083499;28;19928;-80
2024/02/01 09:04:42;;;;;;;;;;;;;;;;;;5086821;28;19924;-79
2024/02/01 09:07:08;;;;;;;;;;;;;;;;;;5079837;28;19925;-79
2024/02/01 09:09:36;;;;;;;;;;;;;;;;;;5077457;28;19928;-77
2024/02/01 09:12:04;;;;;;;;;;;;;;;;;;5084420;28;19978;-78
2024/02/01 09:14:33;;;;;;;;;;;;;;;;;;5075900;28;20396;-79
2024/02/01 09:17:00;;;;;;;;;;;;;;;;;;5085708;28;20373;-78
2024/02/01 09:19:27;;;;;;;;;;;;;;;;;;5085074;28;19933;-78
2024/02/01 09:21:54;;;;;;;;;;;;;;;;;;5069198;28;20037;-78
2024/02/01 09:24:20;;;;;;;;;;;;;;;;;;5064665;28;19924;-79
2024/02/01 09:26:47;;;;;;;;;;;;;;;;;;5074715;28;19969;-79
2024/02/01 09:29:13;;;;;;;;;;;;;;;;;;5079712;28;19924;-77
2024/02/01 09:31:40;;;;;;;;;;;;;;;;;;5077354;28;19924;-77
2024/02/01 09:34:08;;;;;;;;;;;;;;;;;;5076594;28;19998;-78
2024/02/01 09:36:35;;;;;;;;;;;;;;;;;;5078924;28;19932;-77
2024/02/01 09:39:02;;;;;;;;;;;;;;;;;;5059451;28;20117;-79
2024/02/01 09:41:30;;;;;;;;;;;;;;;;;;5080569;28;19924;-80
2024/02/01 09:43:57;;;;;;;;;;;;;;;;;;5088211;28;19971;-77
2024/02/01 09:46:24;;;;;;;;;;;;;;;;;;5079082;28;19946;-76
2024/02/01 09:48:52;;;;;;;;;;;;;;;;;;5081570;28;19924;-77
2024/02/01 09:51:18;;;;;;;;;;;;;;;;;;5059561;28;19925;-79
2024/02/01 09:53:45;;;;;;;;;;;;;;;;;;5076267;28;20484;-78
2024/02/01 09:56:12;;;;;;;;;;;;;;;;;;5080373;28;19924;-79
2024/02/01 09:58:39;;;;;;;;;;;;;;;;;;5083721;28;20023;-78
2024/02/01 10:01:08;;;;;;;;;;;;;;;;;;5081983;28;19924;-79
2024/02/01 10:03:35;;;;;;;;;;;;;;;;;;5081480;28;20392;-79
2024/02/01 10:06:04;;;;;;;;;;;;;;;;;;5063637;28;19924;-80
2024/02/01 10:08:33;;;;;;;;;;;;;;;;;;5079951;28;20281;-78
2024/02/01 10:10:59;;;;;;;;;;;;;;;;;;5079805;28;20405;-78
2024/02/01 10:13:30;;;;;;;;;;;;;;;;;;5087438;28;20007;-77
2024/02/01 10:15:59;;;;;;;;;;;;;;;;;;5091505;28;20016;-78
2024/02/01 10:18:26;;;;;;;;;;;;;;;;;;5089423;28;20018;-77
2024/02/01 10:20:53;;;;;;;;;;;;;;;;;;5086249;28;19928;-79
2024/02/01 10:23:19;;;;;;;;;;;;;;;;;;5080014;28;19924;-79
2024/02/01 10:25:46;;;;;;;;;;;;;;;;;;5083994;28;19924;-78
2024/02/01 10:28:12;;;;;;;;;;;;;;;;;;5088552;28;20254;-79
2024/02/01 10:30:42;;;;;;;;;;;;;;;;;;5079982;28;20022;-78
2024/02/01 10:33:09;;;;;;;;;;;;;;;;;;5086401;28;20415;-79
2024/02/01 10:35:36;;;;;;;;;;;;;;;;;;5083037;28;19932;-76
2024/02/01 10:38:11;;;;;;;;;;;;;;;;;;5064605;28;19974;-79
2024/02/01 10:40:39;;;;;;;;;;;;;;;;;;5083288;28;19974;-76
2024/02/01 10:43:06;;;;;;;;;;;;;;;;;;5057614;28;20304;-77
2024/02/01 10:45:34;;;;;;;;;;;;;;;;;;5082348;28;19928;-78
2024/02/01 10:48:00;;;;;;;;;;;;;;;;;;5081730;28;19924;-79
2024/02/01 10:50:32;;;;;;;;;;;;;;;;;;5080091;28;20364;-79
2024/02/01 10:52:59;;;;;;;;;;;;;;;;;;5084648;28;19931;-79
2024/02/01 10:55:26;;;;;;;;;;;;;;;;;;5087987;28;19928;-78
2024/02/01 10:57:52;;;;;;;;;;;;;;;;;;5083470;28;19932;-79
2024/02/01 11:00:22;;;;;;;;;;;;;;;;;;5083857;28;20018;-78
2024/02/01 11:02:50;;;;;;;;;;;;;;;;;;5086727;28;20461;-76
2024/02/01 11:05:17;;;;;;;;;;;;;;;;;;5084981;28;19928;-78
2024/02/01 11:07:43;;;;;;;;;;;;;;;;;;5081899;28;19934;-79
2024/02/01 11:10:13;;;;;;;;;;;;;;;;;;5082461;28;19939;-79
2024/02/01 11:12:39;;;;;;;;;;;;;;;;;;5078562;28;20014;-79
2024/02/01 11:15:06;;;;;;;;;;;;;;;;;;5081116;28;19931;-80
2024/02/01 11:17:32;;;;;;;;;;;;;;;;;;5079771;28;19925;-80
2024/02/01 11:19:59;;;;;;;;;;;;;;;;;;5085407;28;20386;-78
2024/02/01 11:22:25;;;;;;;;;;;;;;;;;;5060027;28;19935;-79
2024/02/01 11:24:52;;;;;;;;;;;;;;;;;;5085534;28;20313;-77
2024/02/01 11:27:18;;;;;;;;;;;;;;;;;;5083378;28;20450;-76
2024/02/01 11:29:45;;;;;;;;;;;;;;;;;;5086089;28;19986;-78
2024/02/01 11:32:12;;;;;;;;;;;;;;;;;;5086964;28;19958;-79
2024/02/01 11:34:40;;;;;;;;;;;;;;;;;;5079450;28;19928;-78
2024/02/01 11:37:06;;;;;;;;;;;;;;;;;;5073901;28;19958;-76
2024/02/01 11:39:34;;;;;;;;;;;;;;;;;;5079832;28;19924;-78
2024/02/01 11:42:00;;;;;;;;;;;;;;;;;;5077022;28;19930;-78
2024/02/01 11:44:28;;;;;;;;;;;;;;;;;;5076824;28;19925;-78
2024/02/01 11:46:54;;;;;;;;;;;;;;;;;;5083372;28;19947;-79
2024/02/01 11:49:21;;;;;;;;;;;;;;;;;;5080329;28;19966;-78
2024/02/01 11:51:50;;;;;;;;;;;;;;;;;;5083828;28;20026;-77
2024/02/01 11:54:16;;;;;;;;;;;;;;;;;;5077075;28;19924;-78
2024/02/01 11:56:43;;;;;;;;;;;;;;;;;;5083855;28;20019;-77
2024/02/01 11:59:10;;;;;;;;;;;;;;;;;;5086793;28;19935;-77
2024/02/01 12:01:36;;;;;;;;;;;;;;;;;;5082328;28;19932;-78
2024/02/01 12:04:03;;;;;;;;;;;;;;;;;;5080516;28;20051;-79
2024/02/01 12:06:29;;;;;;;;;;;;;;;;;;5076955;28;19925;-78
2024/02/01 12:08:59;;;;;;;;;;;;;;;;;;5082094;28;19955;-78
2024/02/01 12:11:33;;;;;;;;;;;;;;;;;;5079785;28;19928;-79
2024/02/01 12:14:01;;;;;;;;;;;;;;;;;;5087464;28;19934;-76
2024/02/01 12:16:31;;;;;;;;;;;;;;;;;;5081134;28;20307;-78
2024/02/01 12:18:57;;;;;;;;;;;;;;;;;;5061420;28;20282;-77
2024/02/01 12:21:27;;;;;;;;;;;;;;;;;;5068815;28;19928;-79
2024/02/01 12:23:56;;;;;;;;;;;;;;;;;;5074070;28;20323;-76
2024/02/01 12:26:23;;;;;;;;;;;;;;;;;;5077803;28;19931;-76
2024/02/01 12:28:51;;;;;;;;;;;;;;;;;;5067859;28;19933;-77
2024/02/01 12:31:17;;;;;;;;;;;;;;;;;;5067324;28;19928;-77
2024/02/01 12:33:45;;;;;;;;;;;;;;;;;;5087274;28;19939;-76
2024/02/01 12:36:12;;;;;;;;;;;;;;;;;;5076744;28;20454;-77
2024/02/01 12:38:41;;;;;;;;;;;;;;;;;;5075597;28;19960;-77
2024/02/01 12:41:10;;;;;;;;;;;;;;;;;;5080955;28;20004;-78
2024/02/01 12:43:36;;;;;;;;;;;;;;;;;;5079037;28;19928;-76
2024/02/01 12:46:03;;;;;;;;;;;;;;;;;;5082162;28;19924;-78
2024/02/01 12:48:29;;;;;;;;;;;;;;;;;;5086287;28;19931;-79
2024/02/01 12:50:55;;;;;;;;;;;;;;;;;;5081308;28;19928;-76
2024/02/01 12:53:22;;;;;;;;;;;;;;;;;;5080710;28;19928;-77
2024/02/01 12:55:49;;;;;;;;;;;;;;;;;;5085893;28;19928;-78
2024/02/01 12:58:18;;;;;;;;;;;;;;;;;;5064090;28;19935;-75
2024/02/01 13:00:44;;;;;;;;;;;;;;;;;;5084874;28;19947;-77
2024/02/01 13:03:11;;;;;;;;;;;;;;;;;;5084722;28;19929;-78
2024/02/01 13:05:38;;;;;;;;;;;;;;;;;;5060255;28;20426;-78
2024/02/01 13:08:04;;;;;;;;;;;;;;;;;;5078969;28;20389;-78
2024/02/01 13:10:38;;;;;;;;;;;;;;;;;;5083670;28;20384;-78
2024/02/01 13:13:05;;;;;;;;;;;;;;;;;;5063789;28;19935;-76
2024/02/01 13:15:32;;;;;;;;;;;;;;;;;;5079971;28;19935;-77
2024/02/01 13:17:58;;;;;;;;;;;;;;;;;;5084549;28;20396;-77
2024/02/01 13:20:26;;;;;;;;;;;;;;;;;;5080863;28;20011;-76
2024/02/01 13:22:52;;;;;;;;;;;;;;;;;;5074550;28;19936;-77
2024/02/01 13:25:19;;;;;;;;;;;;;;;;;;5082548;28;19932;-76
2024/02/01 13:27:46;;;;;;;;;;;;;;;;;;5060707;28;20593;-76
2024/02/01 13:30:13;;;;;;;;;;;;;;;;;;5076656;28;20578;-77
2024/02/01 13:32:40;;;;;;;;;;;;;;;;;;5079759;28;19939;-77
2024/02/01 13:35:07;;;;;;;;;;;;;;;;;;5078532;28;19924;-75
2024/02/01 13:37:34;;;;;;;;;;;;;;;;;;5081372;28;19974;-79
2024/02/01 13:40:01;;;;;;;;;;;;;;;;;;5061324;28;19924;-77
2024/02/01 13:42:27;;;;;;;;;;;;;;;;;;5069268;28;19928;-77
2024/02/01 13:44:54;;;;;;;;;;;;;;;;;;5084471;28;19925;-77
2024/02/01 13:47:22;;;;;;;;;;;;;;;;;;5081112;28;19924;-77
2024/02/01 13:49:49;;;;;;;;;;;;;;;;;;5085173;28;20010;-77
2024/02/01 13:52:15;;;;;;;;;;;;;;;;;;5086457;28;20383;-77
2024/02/01 13:54:42;;;;;;;;;;;;;;;;;;5084585;28;19924;-77
2024/02/01 13:57:08;;;;;;;;;;;;;;;;;;5078617;28;19963;-75
2024/02/01 13:59:34;;;;;;;;;;;;;;;;;;5081434;28;19924;-75
2024/02/01 14:02:01;;;;;;;;;;;;;;;;;;5079312;28;20385;-76
2024/02/01 14:04:28;;;;;;;;;;;;;;;;;;5082752;28;20482;-77
2024/02/01 14:06:54;;;;;;;;;;;;;;;;;;5076952;28;19955;-78
2024/02/01 14:09:22;;;;;;;;;;;;;;;;;;5078446;28;19929;-74
2024/02/01 14:11:49;;;;;;;;;;;;;;;;;;5074595;28;20380;-77
2024/02/01 14:14:15;;;;;;;;;;;;;;;;;;5080317;28;19929;-78
2024/02/01 14:16:41;;;;;;;;;;;;;;;;;;5076934;28;19928;-77
2024/02/01 14:19:08;;;;;;;;;;;;;;;;;;5078454;28;19924;-76
2024/02/01 14:21:36;;;;;;;;;;;;;;;;;;5080901;28;19935;-76
2024/02/01 14:24:02;;;;;;;;;;;;;;;;;;5076447;28;19924;-78
2024/02/01 14:26:29;;;;;;;;;;;;;;;;;;5078880;28;19978;-76
2024/02/01 14:28:56;;;;;;;;;;;;;;;;;;5085206;28;19939;-78
2024/02/01 14:31:22;;;;;;;;;;;;;;;;;;5080825;28;19935;-78
2024/02/01 14:33:49;;;;;;;;;;;;;;;;;;5073539;28;20025;-77
2024/02/01 14:36:15;;;;;;;;;;;;;;;;;;5079157;28;19924;-75
2024/02/01 14:38:42;;;;;;;;;;;;;;;;;;5088830;28;20015;-77
2024/02/01 14:41:12;;;;;;;;;;;;;;;;;;5077361;28;20346;-78
2024/02/01 14:43:38;;;;;;;;;;;;;;;;;;5074879;28;20434;-76
2024/02/01 14:46:05;;;;;;;;;;;;;;;;;;5078876;28;19932;-76
2024/02/01 14:48:31;;;;;;;;;;;;;;;;;;5081776;28;19924;-75
2024/02/01 14:50:57;;;;;;;;;;;;;;;;;;5074840;28;19928;-77
2024/02/01 14:53:24;;;;;;;;;;;;;;;;;;5087239;28;19929;-76
2024/02/01 14:55:50;;;;;;;;;;;;;;;;;;5079625;28;19929;-77
2024/02/01 14:58:18;;;;;;;;;;;;;;;;;;5082087;28;19928;-77
2024/02/01 15:00:49;;;;;;;;;;;;;;;;;;5078499;28;19924;-77
2024/02/01 15:03:16;;;;;;;;;;;;;;;;;;5078328;28;19924;-77
2024/02/01 15:05:43;;;;;;;;;;;;;;;;;;5085120;28;19969;-76
2024/02/01 15:08:10;;;;;;;;;;;;;;;;;;5080465;28;19924;-77
2024/02/01 15:10:36;;;;;;;;;;;;;;;;;;5077992;28;19928;-76
2024/02/01 15:13:03;;;;;;;;;;;;;;;;;;5077793;28;19966;-76
2024/02/01 15:15:33;;;;;;;;;;;;;;;;;;5087347;28;19928;-75
2024/02/01 15:17:59;;;;;;;;;;;;;;;;;;5079643;28;19954;-78
2024/02/01 15:20:35;;;;;;;;;;;;;;;;;;5083820;28;19932;-76
2024/02/01 15:23:04;;;;;;;;;;;;;;;;;;5085657;28;20627;-77
2024/02/01 15:25:39;;;;;;;;;;;;;;;;;;5084931;28;19928;-75
2024/02/01 15:28:07;;;;;;;;;;;;;;;;;;5075746;28;19997;-74
2024/02/01 15:30:33;;;;;;;;;;;;;;;;;;5084317;28;19924;-75
2024/02/01 15:32:59;;;;;;;;;;;;;;;;;;5081180;28;20042;-76
2024/02/01 15:35:26;;;;;;;;;;;;;;;;;;5085125;28;19925;-75
2024/02/01 15:37:53;;;;;;;;;;;;;;;;;;5075293;28;19946;-77
2024/02/01 15:40:26;;;;;;;;;;;;;;;;;;5075921;28;20323;-77
2024/02/01 15:42:53;;;;;;;;;;;;;;;;;;5084746;28;19947;-76
2024/02/01 15:45:19;;;;;;;;;;;;;;;;;;5077321;28;19954;-75
2024/02/01 15:47:46;;;;;;;;;;;;;;;;;;5083873;28;20339;-77
2024/02/01 15:50:17;;;;;;;;;;;;;;;;;;5084906;28;20023;-77
2024/02/01 15:52:44;;;;;;;;;;;;;;;;;;5080465;28;19931;-76
2024/02/01 15:55:11;;;;;;;;;;;;;;;;;;5068437;28;19932;-75
2024/02/01 15:57:37;;;;;;;;;;;;;;;;;;5078962;28;20029;-77
2024/02/01 16:00:08;;;;;;;;;;;;;;;;;;5084488;28;20385;-78
2024/02/01 16:02:37;;;;;;;;;;;;;;;;;;5085580;28;19928;-77
2024/02/01 16:05:03;;;;;;;;;;;;;;;;;;5084088;28;19924;-76
2024/02/01 16:07:30;;;;;;;;;;;;;;;;;;5090505;28;19963;-77
2024/02/01 16:09:56;;;;;;;;;;;;;;;;;;5084991;28;20098;-75
2024/02/01 16:12:23;;;;;;;;;;;;;;;;;;5090491;28;19935;-76
2024/02/01 16:14:49;;;;;;;;;;;;;;;;;;5084343;28;19924;-78
2024/02/01 16:17:16;;;;;;;;;;;;;;;;;;5073913;28;19956;-75
2024/02/01 16:19:43;;;;;;;;;;;;;;;;;;5082547;28;20365;-76
2024/02/01 16:22:09;;;;;;;;;;;;;;;;;;5084496;28;19924;-75
2024/02/01 16:24:36;;;;;;;;;;;;;;;;;;5078275;28;20433;-75
2024/02/01 16:27:08;;;;;;;;;;;;;;;;;;5078264;28;19935;-76
2024/02/01 16:29:34;;;;;;;;;;;;;;;;;;5088827;28;19924;-77
2024/02/01 16:32:00;;;;;;;;;;;;;;;;;;5082268;28;19924;-77
2024/02/01 16:34:27;;;;;;;;;;;;;;;;;;5058234;28;19954;-75
2024/02/01 16:36:54;;;;;;;;;;;;;;;;;;5078169;28;19982;-76
2024/02/01 16:39:20;;;;;;;;;;;;;;;;;;5078018;28;20209;-77
2024/02/01 16:41:46;;;;;;;;;;;;;;;;;;5081393;28;20399;-76
2024/02/01 16:44:13;;;;;;;;;;;;;;;;;;5078287;28;19940;-75
2024/02/01 16:46:39;;;;;;;;;;;;;;;;;;5077127;28;19924;-76
2024/02/01 16:49:06;;;;;;;;;;;;;;;;;;5077790;28;20007;-75
2024/02/01 16:51:32;;;;;;;;;;;;;;;;;;5059426;28;19931;-77
2024/02/01 16:54:00;;;;;;;;;;;;;;;;;;5076037;28;19957;-78
2024/02/01 16:56:29;;;;;;;;;;;;;;;;;;5079368;28;20234;-77
2024/02/01 16:58:56;;;;;;;;;;;;;;;;;;5081246;28;19924;-75
2024/02/01 17:01:22;;;;;;;;;;;;;;;;;;5078783;28;20030;-75
2024/02/01 17:03:48;;;;;;;;;;;;;;;;;;5081277;28;20377;-76
2024/02/01 17:06:15;;;;;;;;;;;;;;;;;;5088652;28;19924;-75
2024/02/01 17:08:42;;;;;;;;;;;;;;;;;;5081051;28;19924;-77
2024/02/01 17:11:09;;;;;;;;;;;;;;;;;;5073648;28;19932;-77
2024/02/01 17:13:37;;;;;;;;;;;;;;;;;;5084994;28;19932;-75
2024/02/01 17:16:03;;;;;;;;;;;;;;;;;;5084910;28;20011;-77
2024/02/01 17:18:30;;;;;;;;;;;;;;;;;;5074810;28;19947;-77
2024/02/01 17:20:59;;;;;;;;;;;;;;;;;;5082644;28;19928;-78
2024/02/01 17:23:26;;;;;;;;;;;;;;;;;;5057559;28;19928;-76
2024/02/01 17:25:53;;;;;;;;;;;;;;;;;;5078760;28;19924;-76
2024/02/01 17:28:20;;;;;;;;;;;;;;;;;;5099667;28;20281;-75
2024/02/01 17:30:46;;;;;;;;;;;;;;;;;;5083492;28;19924;-75
2024/02/01 17:33:13;;;;;;;;;;;;;;;;;;5081283;28;19989;-77
2024/02/01 17:35:39;;;;;;;;;;;;;;;;;;5079031;28;19924;-76